Saturday, November 17, 2018, 6:41 AM GMT
Back to Local

CYWA, Petawawa, Ont.

Location: , , Canada Lat: 45.95
Local Time: 6:41 AM GMT ( 6:41 GMT) Lon: -77.317
Time Zone: GMT Elev: 426 ft

Show me the last for .
Show Decoded

2018-11-17 06:33 METAR CYWA 170633Z AUTO 00000KT 9SM -SN OVC019 OVC042 OVC055 M03/M04 A2979 =
2018-11-17 06:00 METAR CYWA 170600Z AUTO 00000KT 9SM OVC019 OVC042 OVC055 OVC066 M04/M04 A2978
                 RMK SLP093 =
2018-11-17 05:00 METAR CYWA 170500Z AUTO 00000KT 9SM OVC019 M04/M04 A2976 RMK SLP086 =
2018-11-17 04:00 METAR CYWA 170400Z AUTO 00000KT 9SM BKN021 OVC036 OVC048 OVC061 M05/M05 A2974
                 RMK SLP078 =
2018-11-17 03:53 METAR CYWA 170353Z AUTO 24002KT 9SM BKN021 BKN036 OVC048 OVC061 M05/M05 A2974 =
2018-11-17 03:48 METAR CYWA 170348Z AUTO 00000KT 7SM SCT021 OVC037 OVC079 OVC099 M05/M05 A2973 =
2018-11-17 03:32 METAR CYWA 170332Z AUTO 00000KT 7SM -SN OVC037 M04/M05 A2973 =
2018-11-17 03:07 METAR CYWA 170307Z AUTO 00000KT 9SM FEW039 OVC044 M04/M05 A2972 =
2018-11-17 03:00 METAR CYWA 170300Z AUTO 00000KT 5SM -SN SCT045 OVC079 M04/M05 A2972 RMK ICG PAST
                 HR SLP072 =
2018-11-17 02:53 METAR CYWA 170253Z AUTO 00000KT 5SM -SN OVC050 M05/M05 A2972 RMK ICG PAST HR =
2018-11-17 02:32 METAR CYWA 170232Z AUTO 00000KT 4SM OVC028 OVC099 M04/M05 A2971 RMK ICG PAST HR
                 =
2018-11-17 02:31 METAR CYWA 170231Z AUTO 00000KT 4SM -SN OVC028 OVC099 M04/M05 A2971 RMK ICG PAST
                 HR =
2018-11-17 02:04 METAR CYWA 170204Z AUTO 00000KT 2 1/2SM -SN OVC028 OVC099 M05/M05 A2970 RMK VSBY
                 VRBL 1.9V5.0 ICG =
2018-11-17 02:00 METAR CYWA 170200Z AUTO 00000KT 3SM -SN OVC028 M05/M05 A2970 RMK ICG SLP066 =
2018-11-17 01:57 METAR CYWA 170157Z AUTO 00000KT 5SM -SN FEW047 OVC074 M05/M05 A2970 RMK ICG =
2018-11-17 01:00 METAR CYWA 170100Z AUTO 25002KT 8SM OVC028 M06/M07 A2968 RMK ICG PAST HR SLP058
                 =
2018-11-17 00:59 METAR CYWA 170059Z AUTO 25002KT 8SM OVC028 M06/M07 A2968 RMK ICG PAST HR =
2018-11-17 00:48 METAR CYWA 170048Z AUTO 00000KT 1 3/4SM OVC028 M06/M07 A2967 RMK VSBY VRBL
                 0.6V6.0 ICG =
2018-11-17 00:45 METAR CYWA 170045Z AUTO 25002KT 3/4SM OVC028 M06/M07 A2967 RMK VSBY VRBL 0.4V5.0
                 ICG =
2018-11-17 00:40 METAR CYWA 170040Z AUTO 26002KT 3/8SM OVC028 M06/M06 A2967 RMK ICG =
2018-11-17 00:20 METAR CYWA 170020Z AUTO 00000KT 3/8SM BKN019 BKN080 M05/M05 A2966 =
2018-11-17 00:17 METAR CYWA 170017Z AUTO 00000KT 5/8SM BKN019 OVC080 M05/M05 A2966 =
2018-11-17 00:15 METAR CYWA 170015Z AUTO 00000KT 3/4SM OVC019 OVC090 M05/M05 A2966 =
2018-11-17 00:13 METAR CYWA 170013Z AUTO 00000KT 1 1/4SM OVC019 OVC092 M05/M05 A2966 =
2018-11-17 00:00 METAR CYWA 170000Z AUTO 00000KT 1 3/4SM OVC019 M04/M05 A2966 RMK SLP052 =
2018-11-16 23:55 METAR CYWA 162355Z AUTO 00000KT 1 3/4SM OVC021 M04/M05 A2966 =
2018-11-16 23:40 METAR CYWA 162340Z AUTO 00000KT 2 1/2SM OVC027 M05/M05 A2966 =
2018-11-16 23:00 METAR CYWA 162300Z AUTO 00000KT 3SM OVC031 M03/M04 A2965 RMK SLP049 =
2018-11-16 22:00 METAR CYWA 162200Z AUTO 17002KT 9SM OVC029 OVC057 M03/M04 A2964 RMK SLP045 =
2018-11-16 21:40 METAR CYWA 162140Z AUTO 17002KT 5SM BKN029 OVC057 M03/M04 A2964 =
2018-11-16 21:25 METAR CYWA 162125Z AUTO 17002KT 4SM -SN FEW009 OVC029 OVC047 M03/M04 A2963 =
2018-11-16 21:13 METAR CYWA 162113Z AUTO 16003KT 2 1/4SM -SN SCT009 OVC031 M03/M04 A2963 =
2018-11-16 21:01 METAR CYWA 162101Z AUTO 16003KT 2 1/2SM -SN OVC017 OVC043 OVC085 M03/M04 A2963
                 RMK VSBY VRBL 1.7V5.0 =
2018-11-16 21:00 METAR CYWA 162100Z AUTO 16004KT 3SM -SN OVC017 OVC043 OVC085 M03/M04 A2963 RMK
                 SLP042 =
2018-11-16 20:40 METAR CYWA 162040Z AUTO 15003KT 3SM -SN OVC017 OVC041 OVC047 M03/M04 A2963 =
2018-11-16 20:29 METAR CYWA 162029Z AUTO 16004KT 2 1/2SM -SN OVC017 OVC041 OVC056 M03/M04 A2963 =
2018-11-16 20:20 METAR CYWA 162020Z AUTO 16004KT 2SM -SN VV008 M03/M04 A2962 =
2018-11-16 20:00 METAR CYWA 162000Z AUTO 16004KT 1 1/4SM -SN VV008 M03/M04 A2962 RMK PCPN 0.5MM
                 PAST HR SLP039 =
2018-11-16 19:57 METAR CYWA 161957Z AUTO 15004KT 1 1/4SM -SN VV008 M03/M04 A2962 =
2018-11-16 19:27 METAR CYWA 161927Z AUTO 16004KT 3/4SM -SN VV008 M03/M04 A2962 =
2018-11-16 19:01 METAR CYWA 161901Z AUTO 17004KT 3/4SM -SN VV011 M03/M05 A2963 =
2018-11-16 19:00 METAR CYWA 161900Z AUTO 17004KT 1SM -SN VV011 M03/M05 A2963 RMK SLP041 =
2018-11-16 18:53 METAR CYWA 161853Z AUTO 17004KT 1 1/4SM -SN VV011 M03/M05 A2963 =
2018-11-16 18:49 METAR CYWA 161849Z AUTO 16004KT 1 3/4SM -SN VV013 M03/M05 A2963 =
2018-11-16 18:45 METAR CYWA 161845Z AUTO 17006KT 1 3/4SM -SN VV008 M03/M05 A2963 =
2018-11-16 18:32 METAR CYWA 161832Z AUTO 17005KT 1 1/4SM -SN VV008 M03/M04 A2963 =
2018-11-16 18:00 METAR CYWA 161800Z AUTO 16005KT 3/4SM -SN VV008 M03/M05 A2964 RMK PCPN 0.5MM
                 PAST HR SLP045 =
2018-11-16 17:31 METAR CYWA 161731Z AUTO 15005KT 3/4SM -SN VV008 M03/M05 A2965 =
2018-11-16 17:17 METAR CYWA 161717Z AUTO 15004KT 1 1/4SM -SN VV008 M03/M04 A2965 =
2018-11-16 17:02 METAR CYWA 161702Z AUTO 16005KT 1 5/8SM -SN OVC008 M03/M05 A2966 =
2018-11-16 17:00 METAR CYWA 161700Z AUTO 16006KT 1 1/4SM -SN OVC008 M03/M05 A2966 RMK SLP053 =
2018-11-16 16:42 METAR CYWA 161642Z AUTO 16005KT 120V180 1 1/4SM -SN OVC008 OVC038 M03/M05 A2967
                 =
2018-11-16 16:25 METAR CYWA 161625Z AUTO 16006KT 2 1/4SM -SN VV008 M03/M05 A2968
2018-11-16 16:13 METAR CYWA 161613Z AUTO 16004KT 130V190 3SM -SN OVC007 OVC015 M03/M05 A2969 =
2018-11-16 16:02 METAR CYWA 161602Z AUTO 16005KT 1 1/4SM -SN OVC007 M03/M05 A2970 =
2018-11-16 16:00 METAR CYWA 161600Z AUTO 16005KT 3/4SM -SN OVC006 M03/M05 A2970 RMK PCPN 0.5MM
                 PAST HR SLP065 =
2018-11-16 15:59 METAR CYWA 161559Z AUTO 16006KT 3/4SM -SN OVC006 M03/M05 A2970 =
2018-11-16 15:35 METAR CYWA 161535Z AUTO 16004KT 5/8SM -SN OVC007 M03/M05 A2971 =
2018-11-16 15:30 METAR CYWA 161530Z AUTO 16005KT 3/4SM -SN OVC007 M04/M05 A2971 =
2018-11-16 15:23 METAR CYWA 161523Z AUTO 16004KT 1 1/4SM -SN OVC007 M04/M05 A2971 =
2018-11-16 15:00 METAR CYWA 161500Z AUTO 14005KT 110V170 1 3/4SM -SN OVC007 M04/M05 A2971 RMK
                 PCPN 0.5MM PAST HR SLP070 =
2018-11-16 14:26 METAR CYWA 161426Z AUTO 12008KT 100V160 1 3/4SM -SN VV008 M04/M05 A2972 =
2018-11-16 14:06 METAR CYWA 161406Z AUTO 13007KT 100V160 1 1/4SM -SN VV007 M04/M06 A2973 =
2018-11-16 14:01 METAR CYWA 161401Z AUTO 13008KT 1 1/2SM -SN VV007 M04/M05 A2973 =
2018-11-16 14:00 METAR CYWA 161400Z AUTO 13009KT 1 1/4SM -SN VV007 M04/M06 A2973 RMK SLP078 =
2018-11-16 13:28 METAR CYWA 161328Z AUTO 13009KT 1SM -SN VV009 M04/M06 A2975 =
2018-11-16 13:00 METAR CYWA 161300Z AUTO 13009KT 5/8SM -SN VV007 M04/M05 A2977 RMK SLP089 =
2018-11-16 12:51 METAR CYWA 161251Z AUTO 14008KT 5/8SM -SN VV008 M04/M05 A2977 =
2018-11-16 12:41 METAR CYWA 161241Z AUTO 14006KT 3/4SM -SN VV008 M04/M06 A2977 =
2018-11-16 12:18 METAR CYWA 161218Z AUTO 14005KT 1SM -SN VV007 M04/M06 A2977 =
2018-11-16 12:00 METAR CYWA 161200Z AUTO 14007KT 100V170 3/4SM -SN VV005 M04/M05 A2978 RMK PCPN
                 0.5MM PAST HR SLP094 =
2018-11-16 11:39 METAR CYWA 161139Z AUTO 13008KT 3/4SM -SN VV007 M05/M06 A2979 =
2018-11-16 11:00 METAR CYWA 161100Z AUTO 13009KT 5/8SM -SN VV007 M05/M06 A2981 RMK PCPN 0.5MM
                 PAST HR SLP104 =
2018-11-16 10:00 METAR CYWA 161000Z AUTO 11010KT 080V140 1/2SM -SN VV008 M05/M06 A2983 RMK PCPN
                 3.5MM PAST HR SLP112 =
2018-11-16 09:57 METAR CYWA 160957Z AUTO 12009KT 080V140 1/2SM -SN VV008 M05/M06 A2984 =
2018-11-16 09:00 METAR CYWA 160900Z AUTO 12008KT 1/4SM -SN OVC007 M05/M06 A2986 RMK PCPN 0.5MM
                 PAST HR SLP122 =
2018-11-16 08:50 METAR CYWA 160850Z AUTO 13009KT 3/8SM -SN VV008 M05/M06 A2987 =
2018-11-16 08:01 METAR CYWA 160801Z AUTO 12006KT 080V140 5/8SM -SN OVC007 M05/M07 A2990 =
2018-11-16 08:00 METAR CYWA 160800Z AUTO 12007KT 080V140 3/4SM -SN OVC008 M05/M06 A2990 RMK
                 SLP134 =
2018-11-16 07:54 METAR CYWA 160754Z AUTO 10006KT 080V150 3/4SM -SN VV008 M05/M06 A2990 =
2018-11-16 07:00 METAR CYWA 160700Z AUTO 11006KT 080V140 5/8SM -SN VV008 M06/M06 A2992 RMK PCPN
                 1.0MM PAST HR SLP142 =

Support USWX by starting your Amazon purchase here.